sensor_id;sensor_type;location;lat;lon;timestamp;temperature;humidity
11848;DHT22;5983;49.966;8.052;2024-02-04T00:00:54;10.40;99.90
11848;DHT22;5983;49.966;8.052;2024-02-04T00:03:22;10.40;99.90
11848;DHT22;5983;49.966;8.052;2024-02-04T00:05:49;10.40;99.90
11848;DHT22;5983;49.966;8.052;2024-02-04T00:08:16;10.40;99.90
11848;DHT22;5983;49.966;8.052;2024-02-04T00:10:43;10.40;99.90
11848;DHT22;5983;49.966;8.052;2024-02-04T00:13:10;10.40;99.90
11848;DHT22;5983;49.966;8.052;2024-02-04T00:15:36;10.40;99.90
11848;DHT22;5983;49.966;8.052;2024-02-04T00:18:04;10.40;99.90
11848;DHT22;5983;49.966;8.052;2024-02-04T00:20:33;10.40;99.90
11848;DHT22;5983;49.966;8.052;2024-02-04T00:22:59;10.50;99.90
11848;DHT22;5983;49.966;8.052;2024-02-04T00:25:26;10.50;99.90
11848;DHT22;5983;49.966;8.052;2024-02-04T00:27:54;10.40;99.90
11848;DHT22;5983;49.966;8.052;2024-02-04T00:30:21;10.50;99.90
11848;DHT22;5983;49.966;8.052;2024-02-04T00:32:48;10.40;99.90
11848;DHT22;5983;49.966;8.052;2024-02-04T00:35:14;10.50;99.90
11848;DHT22;5983;49.966;8.052;2024-02-04T00:37:42;10.50;99.90
11848;DHT22;5983;49.966;8.052;2024-02-04T00:40:10;10.50;99.90
11848;DHT22;5983;49.966;8.052;2024-02-04T00:42:37;10.50;99.90
11848;DHT22;5983;49.966;8.052;2024-02-04T00:45:04;10.40;99.90
11848;DHT22;5983;49.966;8.052;2024-02-04T00:47:31;10.50;99.90
11848;DHT22;5983;49.966;8.052;2024-02-04T00:49:58;10.50;99.90
11848;DHT22;5983;49.966;8.052;2024-02-04T00:52:25;10.50;99.90
11848;DHT22;5983;49.966;8.052;2024-02-04T00:54:53;10.50;99.90
11848;DHT22;5983;49.966;8.052;2024-02-04T00:57:20;10.50;99.90
11848;DHT22;5983;49.966;8.052;2024-02-04T00:59:47;10.50;99.90
11848;DHT22;5983;49.966;8.052;2024-02-04T01:02:15;10.50;99.90
11848;DHT22;5983;49.966;8.052;2024-02-04T01:04:42;10.50;99.90
11848;DHT22;5983;49.966;8.052;2024-02-04T01:07:09;10.50;99.90
11848;DHT22;5983;49.966;8.052;2024-02-04T01:09:36;10.50;99.90
11848;DHT22;5983;49.966;8.052;2024-02-04T01:12:04;10.50;99.90
11848;DHT22;5983;49.966;8.052;2024-02-04T01:14:31;10.50;99.90
11848;DHT22;5983;49.966;8.052;2024-02-04T01:16:58;10.50;99.90
11848;DHT22;5983;49.966;8.052;2024-02-04T01:19:25;10.50;99.90
11848;DHT22;5983;49.966;8.052;2024-02-04T01:21:51;10.50;99.90
11848;DHT22;5983;49.966;8.052;2024-02-04T01:24:18;10.50;99.90
11848;DHT22;5983;49.966;8.052;2024-02-04T01:26:45;10.50;99.90
11848;DHT22;5983;49.966;8.052;2024-02-04T01:29:13;10.50;99.90
11848;DHT22;5983;49.966;8.052;2024-02-04T01:31:40;10.50;99.90
11848;DHT22;5983;49.966;8.052;2024-02-04T01:34:06;10.50;99.90
11848;DHT22;5983;49.966;8.052;2024-02-04T01:36:33;10.50;99.90
11848;DHT22;5983;49.966;8.052;2024-02-04T01:39:00;10.50;99.90
11848;DHT22;5983;49.966;8.052;2024-02-04T01:41:27;10.50;99.90
11848;DHT22;5983;49.966;8.052;2024-02-04T01:43:53;10.50;99.90
11848;DHT22;5983;49.966;8.052;2024-02-04T01:46:21;10.50;99.90
11848;DHT22;5983;49.966;8.052;2024-02-04T01:48:48;10.50;99.90
11848;DHT22;5983;49.966;8.052;2024-02-04T01:51:16;10.50;99.90
11848;DHT22;5983;49.966;8.052;2024-02-04T01:53:45;10.50;99.90
11848;DHT22;5983;49.966;8.052;2024-02-04T01:56:12;10.50;99.90
11848;DHT22;5983;49.966;8.052;2024-02-04T01:58:40;10.40;99.90
11848;DHT22;5983;49.966;8.052;2024-02-04T02:01:09;10.40;99.90
11848;DHT22;5983;49.966;8.052;2024-02-04T02:03:38;10.40;99.90
11848;DHT22;5983;49.966;8.052;2024-02-04T02:06:05;10.40;99.90
11848;DHT22;5983;49.966;8.052;2024-02-04T02:08:32;10.40;99.90
11848;DHT22;5983;49.966;8.052;2024-02-04T02:11:02;10.30;99.90
11848;DHT22;5983;49.966;8.052;2024-02-04T02:13:34;10.30;99.90
11848;DHT22;5983;49.966;8.052;2024-02-04T02:16:04;10.30;99.90
11848;DHT22;5983;49.966;8.052;2024-02-04T02:18:41;10.20;99.90
11848;DHT22;5983;49.966;8.052;2024-02-04T02:21:14;10.20;99.90
11848;DHT22;5983;49.966;8.052;2024-02-04T02:23:52;10.10;99.90
11848;DHT22;5983;49.966;8.052;2024-02-04T02:26:30;10.10;99.90
11848;DHT22;5983;49.966;8.052;2024-02-04T02:28:58;10.10;99.90
11848;DHT22;5983;49.966;8.052;2024-02-04T02:31:25;10.10;99.90
11848;DHT22;5983;49.966;8.052;2024-02-04T02:33:52;10.10;99.90
11848;DHT22;5983;49.966;8.052;2024-02-04T02:36:20;10.10;99.90
11848;DHT22;5983;49.966;8.052;2024-02-04T02:38:50;10.10;99.90
11848;DHT22;5983;49.966;8.052;2024-02-04T02:41:23;10.10;99.90
11848;DHT22;5983;49.966;8.052;2024-02-04T02:43:52;10.00;99.90
11848;DHT22;5983;49.966;8.052;2024-02-04T02:46:20;10.10;99.90
11848;DHT22;5983;49.966;8.052;2024-02-04T02:48:47;10.10;99.90
11848;DHT22;5983;49.966;8.052;2024-02-04T02:51:14;10.10;99.90
11848;DHT22;5983;49.966;8.052;2024-02-04T02:53:42;10.10;99.90
11848;DHT22;5983;49.966;8.052;2024-02-04T02:56:09;10.10;99.90
11848;DHT22;5983;49.966;8.052;2024-02-04T02:58:36;10.10;99.90
11848;DHT22;5983;49.966;8.052;2024-02-04T03:01:04;10.00;99.90
11848;DHT22;5983;49.966;8.052;2024-02-04T03:03:30;10.10;99.90
11848;DHT22;5983;49.966;8.052;2024-02-04T03:05:57;10.10;99.90
11848;DHT22;5983;49.966;8.052;2024-02-04T03:08:24;10.10;99.90
11848;DHT22;5983;49.966;8.052;2024-02-04T03:10:51;10.10;99.90
11848;DHT22;5983;49.966;8.052;2024-02-04T03:13:17;10.10;99.90
11848;DHT22;5983;49.966;8.052;2024-02-04T03:15:45;10.10;99.90
11848;DHT22;5983;49.966;8.052;2024-02-04T03:18:13;10.10;99.90
11848;DHT22;5983;49.966;8.052;2024-02-04T03:20:40;10.10;99.90
11848;DHT22;5983;49.966;8.052;2024-02-04T03:23:07;10.10;99.90
11848;DHT22;5983;49.966;8.052;2024-02-04T03:25:34;10.10;99.90
11848;DHT22;5983;49.966;8.052;2024-02-04T03:28:00;10.10;99.90
11848;DHT22;5983;49.966;8.052;2024-02-04T03:30:28;10.20;99.90
11848;DHT22;5983;49.966;8.052;2024-02-04T03:32:55;10.10;99.90
11848;DHT22;5983;49.966;8.052;2024-02-04T03:35:23;10.20;99.90
11848;DHT22;5983;49.966;8.052;2024-02-04T03:37:50;10.10;99.90
11848;DHT22;5983;49.966;8.052;2024-02-04T03:40:16;10.10;99.90
11848;DHT22;5983;49.966;8.052;2024-02-04T03:42:44;10.20;99.90
11848;DHT22;5983;49.966;8.052;2024-02-04T03:45:11;10.20;99.90
11848;DHT22;5983;49.966;8.052;2024-02-04T03:47:38;10.20;99.90
11848;DHT22;5983;49.966;8.052;2024-02-04T03:50:05;10.20;99.90
11848;DHT22;5983;49.966;8.052;2024-02-04T03:52:33;10.20;99.90
11848;DHT22;5983;49.966;8.052;2024-02-04T03:55:00;10.20;99.90
11848;DHT22;5983;49.966;8.052;2024-02-04T03:57:27;10.20;99.90
11848;DHT22;5983;49.966;8.052;2024-02-04T03:59:53;10.20;99.90
11848;DHT22;5983;49.966;8.052;2024-02-04T04:02:20;10.20;99.90
11848;DHT22;5983;49.966;8.052;2024-02-04T04:04:47;10.20;99.90
11848;DHT22;5983;49.966;8.052;2024-02-04T04:07:13;10.20;99.90
11848;DHT22;5983;49.966;8.052;2024-02-04T04:09:42;10.20;99.90
11848;DHT22;5983;49.966;8.052;2024-02-04T04:12:08;10.20;99.90
11848;DHT22;5983;49.966;8.052;2024-02-04T04:14:35;10.20;99.90
11848;DHT22;5983;49.966;8.052;2024-02-04T04:17:02;10.20;99.90
11848;DHT22;5983;49.966;8.052;2024-02-04T04:19:29;10.20;99.90
11848;DHT22;5983;49.966;8.052;2024-02-04T04:21:58;10.20;99.90
11848;DHT22;5983;49.966;8.052;2024-02-04T04:24:26;10.20;99.90
11848;DHT22;5983;49.966;8.052;2024-02-04T04:26:54;10.20;99.90
11848;DHT22;5983;49.966;8.052;2024-02-04T04:29:21;10.20;99.90
11848;DHT22;5983;49.966;8.052;2024-02-04T04:31:48;10.20;99.90
11848;DHT22;5983;49.966;8.052;2024-02-04T04:34:14;10.20;99.90
11848;DHT22;5983;49.966;8.052;2024-02-04T04:36:43;10.20;99.90
11848;DHT22;5983;49.966;8.052;2024-02-04T04:39:10;10.20;99.90
11848;DHT22;5983;49.966;8.052;2024-02-04T04:41:38;10.20;99.90
11848;DHT22;5983;49.966;8.052;2024-02-04T04:44:07;10.20;99.90
11848;DHT22;5983;49.966;8.052;2024-02-04T04:46:37;10.20;99.90
11848;DHT22;5983;49.966;8.052;2024-02-04T04:51:32;10.20;99.90
11848;DHT22;5983;49.966;8.052;2024-02-04T04:53:59;10.20;99.90
11848;DHT22;5983;49.966;8.052;2024-02-04T04:56:25;10.20;99.90
11848;DHT22;5983;49.966;8.052;2024-02-04T04:58:52;10.20;99.90
11848;DHT22;5983;49.966;8.052;2024-02-04T05:01:20;10.20;99.90
11848;DHT22;5983;49.966;8.052;2024-02-04T05:03:47;10.20;99.90
11848;DHT22;5983;49.966;8.052;2024-02-04T05:06:14;10.20;99.90
11848;DHT22;5983;49.966;8.052;2024-02-04T05:08:40;10.30;99.90
11848;DHT22;5983;49.966;8.052;2024-02-04T05:11:07;10.30;99.90
11848;DHT22;5983;49.966;8.052;2024-02-04T05:13:34;10.20;99.90
11848;DHT22;5983;49.966;8.052;2024-02-04T05:16:01;10.30;99.90
11848;DHT22;5983;49.966;8.052;2024-02-04T05:18:29;10.20;99.90
11848;DHT22;5983;49.966;8.052;2024-02-04T05:20:55;10.30;99.90
11848;DHT22;5983;49.966;8.052;2024-02-04T05:23:22;10.30;99.90
11848;DHT22;5983;49.966;8.052;2024-02-04T05:25:49;10.30;99.90
11848;DHT22;5983;49.966;8.052;2024-02-04T05:28:15;10.30;99.90
11848;DHT22;5983;49.966;8.052;2024-02-04T05:30:42;10.30;99.90
11848;DHT22;5983;49.966;8.052;2024-02-04T05:33:09;10.30;99.90
11848;DHT22;5983;49.966;8.052;2024-02-04T05:35:42;10.30;99.90
11848;DHT22;5983;49.966;8.052;2024-02-04T05:38:09;10.30;99.90
11848;DHT22;5983;49.966;8.052;2024-02-04T05:40:35;10.40;99.90
11848;DHT22;5983;49.966;8.052;2024-02-04T05:43:02;10.40;99.90
11848;DHT22;5983;49.966;8.052;2024-02-04T05:45:32;10.40;99.90
11848;DHT22;5983;49.966;8.052;2024-02-04T05:47:59;10.40;99.90
11848;DHT22;5983;49.966;8.052;2024-02-04T05:50:26;10.40;99.90
11848;DHT22;5983;49.966;8.052;2024-02-04T05:52:54;10.30;99.90
11848;DHT22;5983;49.966;8.052;2024-02-04T05:55:21;10.30;99.90
11848;DHT22;5983;49.966;8.052;2024-02-04T05:57:48;10.30;99.90
11848;DHT22;5983;49.966;8.052;2024-02-04T06:00:15;10.30;99.90
11848;DHT22;5983;49.966;8.052;2024-02-04T06:02:42;10.30;99.90
11848;DHT22;5983;49.966;8.052;2024-02-04T06:05:09;10.30;99.90
11848;DHT22;5983;49.966;8.052;2024-02-04T06:07:36;10.30;99.90
11848;DHT22;5983;49.966;8.052;2024-02-04T06:10:04;10.30;99.90
11848;DHT22;5983;49.966;8.052;2024-02-04T06:12:35;10.30;99.90
11848;DHT22;5983;49.966;8.052;2024-02-04T06:15:03;10.20;99.90
11848;DHT22;5983;49.966;8.052;2024-02-04T06:17:30;10.30;99.90
11848;DHT22;5983;49.966;8.052;2024-02-04T06:19:57;10.20;99.90
11848;DHT22;5983;49.966;8.052;2024-02-04T06:22:25;10.20;99.90
11848;DHT22;5983;49.966;8.052;2024-02-04T06:24:52;10.20;99.90
11848;DHT22;5983;49.966;8.052;2024-02-04T06:27:20;10.20;99.90
11848;DHT22;5983;49.966;8.052;2024-02-04T06:29:47;10.20;99.90
11848;DHT22;5983;49.966;8.052;2024-02-04T06:32:14;10.20;99.90
11848;DHT22;5983;49.966;8.052;2024-02-04T06:34:40;10.20;99.90
11848;DHT22;5983;49.966;8.052;2024-02-04T06:37:07;10.20;99.90
11848;DHT22;5983;49.966;8.052;2024-02-04T06:39:34;10.20;99.90
11848;DHT22;5983;49.966;8.052;2024-02-04T06:42:01;10.20;99.90
11848;DHT22;5983;49.966;8.052;2024-02-04T06:44:29;10.10;99.90
11848;DHT22;5983;49.966;8.052;2024-02-04T06:46:55;10.10;99.90
11848;DHT22;5983;49.966;8.052;2024-02-04T06:49:22;10.10;99.90
11848;DHT22;5983;49.966;8.052;2024-02-04T06:51:49;10.10;99.90
11848;DHT22;5983;49.966;8.052;2024-02-04T06:54:21;10.10;99.90
11848;DHT22;5983;49.966;8.052;2024-02-04T06:56:48;10.10;99.90
11848;DHT22;5983;49.966;8.052;2024-02-04T06:59:15;10.10;99.90
11848;DHT22;5983;49.966;8.052;2024-02-04T07:01:43;10.10;99.90
11848;DHT22;5983;49.966;8.052;2024-02-04T07:04:10;10.10;99.90
11848;DHT22;5983;49.966;8.052;2024-02-04T07:06:36;10.10;99.90
11848;DHT22;5983;49.966;8.052;2024-02-04T07:09:03;10.10;99.90
11848;DHT22;5983;49.966;8.052;2024-02-04T07:11:30;10.10;99.90
11848;DHT22;5983;49.966;8.052;2024-02-04T07:13:57;10.10;99.90
11848;DHT22;5983;49.966;8.052;2024-02-04T07:16:25;10.10;99.90
11848;DHT22;5983;49.966;8.052;2024-02-04T07:18:54;10.10;99.90
11848;DHT22;5983;49.966;8.052;2024-02-04T07:21:21;10.20;99.90
11848;DHT22;5983;49.966;8.052;2024-02-04T07:23:47;10.20;99.90
11848;DHT22;5983;49.966;8.052;2024-02-04T07:26:14;10.10;99.90
11848;DHT22;5983;49.966;8.052;2024-02-04T07:28:41;10.20;99.90
11848;DHT22;5983;49.966;8.052;2024-02-04T07:31:08;10.20;99.90
11848;DHT22;5983;49.966;8.052;2024-02-04T07:33:34;10.20;99.90
11848;DHT22;5983;49.966;8.052;2024-02-04T07:36:03;10.20;99.90
11848;DHT22;5983;49.966;8.052;2024-02-04T07:38:30;10.20;99.90
11848;DHT22;5983;49.966;8.052;2024-02-04T07:40:57;10.20;99.90
11848;DHT22;5983;49.966;8.052;2024-02-04T07:43:24;10.20;99.90
11848;DHT22;5983;49.966;8.052;2024-02-04T07:45:51;10.20;99.90
11848;DHT22;5983;49.966;8.052;2024-02-04T07:48:18;10.20;99.90
11848;DHT22;5983;49.966;8.052;2024-02-04T07:50:45;10.20;99.90
11848;DHT22;5983;49.966;8.052;2024-02-04T07:53:13;10.20;99.90
11848;DHT22;5983;49.966;8.052;2024-02-04T07:55:40;10.20;99.90
11848;DHT22;5983;49.966;8.052;2024-02-04T07:58:07;10.20;99.90
11848;DHT22;5983;49.966;8.052;2024-02-04T08:00:34;10.20;99.90
11848;DHT22;5983;49.966;8.052;2024-02-04T08:03:00;10.30;99.90
11848;DHT22;5983;49.966;8.052;2024-02-04T08:05:27;10.30;99.90
11848;DHT22;5983;49.966;8.052;2024-02-04T08:07:54;10.30;99.90
11848;DHT22;5983;49.966;8.052;2024-02-04T08:10:22;10.30;99.90
11848;DHT22;5983;49.966;8.052;2024-02-04T08:12:49;10.30;99.90
11848;DHT22;5983;49.966;8.052;2024-02-04T08:15:17;10.30;99.90
11848;DHT22;5983;49.966;8.052;2024-02-04T08:17:44;10.30;99.90
11848;DHT22;5983;49.966;8.052;2024-02-04T08:20:11;10.30;99.90
11848;DHT22;5983;49.966;8.052;2024-02-04T08:22:38;10.30;99.90
11848;DHT22;5983;49.966;8.052;2024-02-04T08:25:05;10.30;99.90
11848;DHT22;5983;49.966;8.052;2024-02-04T08:27:33;10.30;99.90
11848;DHT22;5983;49.966;8.052;2024-02-04T08:30:00;10.30;99.90
11848;DHT22;5983;49.966;8.052;2024-02-04T08:32:27;10.30;99.90
11848;DHT22;5983;49.966;8.052;2024-02-04T08:34:54;10.20;99.90
11848;DHT22;5983;49.966;8.052;2024-02-04T08:37:20;10.30;99.90
11848;DHT22;5983;49.966;8.052;2024-02-04T08:39:47;10.30;99.90
11848;DHT22;5983;49.966;8.052;2024-02-04T08:42:14;10.40;99.90
11848;DHT22;5983;49.966;8.052;2024-02-04T08:44:42;10.50;99.90
11848;DHT22;5983;49.966;8.052;2024-02-04T08:47:09;10.50;99.90
11848;DHT22;5983;49.966;8.052;2024-02-04T08:49:39;10.60;99.90
11848;DHT22;5983;49.966;8.052;2024-02-04T08:52:05;10.70;99.90
11848;DHT22;5983;49.966;8.052;2024-02-04T08:54:32;10.90;99.90
11848;DHT22;5983;49.966;8.052;2024-02-04T08:56:59;10.90;99.90
11848;DHT22;5983;49.966;8.052;2024-02-04T08:59:26;10.90;99.90
11848;DHT22;5983;49.966;8.052;2024-02-04T09:01:54;10.90;99.90
11848;DHT22;5983;49.966;8.052;2024-02-04T09:04:20;10.90;99.90
11848;DHT22;5983;49.966;8.052;2024-02-04T09:06:47;11.00;99.90
11848;DHT22;5983;49.966;8.052;2024-02-04T09:09:14;11.00;99.90
11848;DHT22;5983;49.966;8.052;2024-02-04T09:11:41;11.20;99.90
11848;DHT22;5983;49.966;8.052;2024-02-04T09:14:08;11.30;99.90
11848;DHT22;5983;49.966;8.052;2024-02-04T09:16:37;11.50;99.90
11848;DHT22;5983;49.966;8.052;2024-02-04T09:19:05;11.60;99.90
11848;DHT22;5983;49.966;8.052;2024-02-04T09:21:32;11.80;99.90
11848;DHT22;5983;49.966;8.052;2024-02-04T09:23:58;12.10;99.90
11848;DHT22;5983;49.966;8.052;2024-02-04T09:26:25;12.40;99.90
11848;DHT22;5983;49.966;8.052;2024-02-04T09:28:52;12.80;99.90
11848;DHT22;5983;49.966;8.052;2024-02-04T09:31:18;12.90;99.90
11848;DHT22;5983;49.966;8.052;2024-02-04T09:33:45;13.50;99.90
11848;DHT22;5983;49.966;8.052;2024-02-04T09:36:13;13.70;99.90
11848;DHT22;5983;49.966;8.052;2024-02-04T09:38:40;13.60;99.90
11848;DHT22;5983;49.966;8.052;2024-02-04T09:41:07;13.20;99.90
11848;DHT22;5983;49.966;8.052;2024-02-04T09:43:34;12.90;99.90
11848;DHT22;5983;49.966;8.052;2024-02-04T09:46:02;12.60;99.90
11848;DHT22;5983;49.966;8.052;2024-02-04T09:48:30;12.50;99.90
11848;DHT22;5983;49.966;8.052;2024-02-04T09:50:58;12.30;99.90
11848;DHT22;5983;49.966;8.052;2024-02-04T09:53:29;12.20;99.90
11848;DHT22;5983;49.966;8.052;2024-02-04T09:55:58;12.10;99.90
11848;DHT22;5983;49.966;8.052;2024-02-04T09:58:27;12.10;99.90
11848;DHT22;5983;49.966;8.052;2024-02-04T10:00:54;12.00;99.90
11848;DHT22;5983;49.966;8.052;2024-02-04T10:03:21;11.80;99.90
11848;DHT22;5983;49.966;8.052;2024-02-04T10:05:48;11.70;99.90
11848;DHT22;5983;49.966;8.052;2024-02-04T10:08:15;11.60;99.90
11848;DHT22;5983;49.966;8.052;2024-02-04T10:10:43;11.50;99.90
11848;DHT22;5983;49.966;8.052;2024-02-04T10:13:10;11.50;99.90
11848;DHT22;5983;49.966;8.052;2024-02-04T10:15:37;11.60;99.90
11848;DHT22;5983;49.966;8.052;2024-02-04T10:18:04;11.60;99.90
11848;DHT22;5983;49.966;8.052;2024-02-04T10:20:32;11.90;99.90
11848;DHT22;5983;49.966;8.052;2024-02-04T10:22:59;12.50;99.90
11848;DHT22;5983;49.966;8.052;2024-02-04T10:25:26;13.00;99.90
11848;DHT22;5983;49.966;8.052;2024-02-04T10:27:54;13.10;99.90
11848;DHT22;5983;49.966;8.052;2024-02-04T10:30:22;13.00;99.90
11848;DHT22;5983;49.966;8.052;2024-02-04T10:32:50;13.00;99.90
11848;DHT22;5983;49.966;8.052;2024-02-04T10:35:17;13.00;99.90
11848;DHT22;5983;49.966;8.052;2024-02-04T10:37:44;12.90;99.90
11848;DHT22;5983;49.966;8.052;2024-02-04T10:40:11;13.10;99.90
11848;DHT22;5983;49.966;8.052;2024-02-04T10:42:38;13.20;99.90
11848;DHT22;5983;49.966;8.052;2024-02-04T10:45:08;13.30;99.90
11848;DHT22;5983;49.966;8.052;2024-02-04T10:50:17;13.20;99.90
11848;DHT22;5983;49.966;8.052;2024-02-04T10:52:46;13.20;99.90
11848;DHT22;5983;49.966;8.052;2024-02-04T10:55:13;13.20;99.90
11848;DHT22;5983;49.966;8.052;2024-02-04T10:57:43;13.20;99.90
11848;DHT22;5983;49.966;8.052;2024-02-04T11:00:12;13.30;99.90
11848;DHT22;5983;49.966;8.052;2024-02-04T11:02:39;13.30;99.90
11848;DHT22;5983;49.966;8.052;2024-02-04T11:05:08;13.20;99.90
11848;DHT22;5983;49.966;8.052;2024-02-04T11:07:36;13.10;99.90
11848;DHT22;5983;49.966;8.052;2024-02-04T11:10:04;13.10;99.90
11848;DHT22;5983;49.966;8.052;2024-02-04T11:12:31;13.10;99.90
11848;DHT22;5983;49.966;8.052;2024-02-04T11:15:02;13.10;99.90
11848;DHT22;5983;49.966;8.052;2024-02-04T11:17:45;13.20;99.90
11848;DHT22;5983;49.966;8.052;2024-02-04T11:20:40;13.40;99.90
11848;DHT22;5983;49.966;8.052;2024-02-04T11:23:24;13.80;99.90
11848;DHT22;5983;49.966;8.052;2024-02-04T11:25:59;14.20;99.90
11848;DHT22;5983;49.966;8.052;2024-02-04T11:28:27;14.50;99.90
11848;DHT22;5983;49.966;8.052;2024-02-04T11:30:54;14.60;99.90
11848;DHT22;5983;49.966;8.052;2024-02-04T11:33:23;15.00;99.90
11848;DHT22;5983;49.966;8.052;2024-02-04T11:35:59;15.50;99.90
11848;DHT22;5983;49.966;8.052;2024-02-04T11:38:35;15.60;99.90
11848;DHT22;5983;49.966;8.052;2024-02-04T11:41:02;15.40;99.90
11848;DHT22;5983;49.966;8.052;2024-02-04T11:43:31;15.40;99.90
11848;DHT22;5983;49.966;8.052;2024-02-04T11:45:59;15.30;99.90
11848;DHT22;5983;49.966;8.052;2024-02-04T11:48:30;15.10;99.90
11848;DHT22;5983;49.966;8.052;2024-02-04T11:50:58;15.00;99.90
11848;DHT22;5983;49.966;8.052;2024-02-04T11:53:26;14.90;99.90
11848;DHT22;5983;49.966;8.052;2024-02-04T11:55:55;15.30;99.90
11848;DHT22;5983;49.966;8.052;2024-02-04T11:58:22;16.50;99.90
11848;DHT22;5983;49.966;8.052;2024-02-04T12:00:51;17.30;99.90
11848;DHT22;5983;49.966;8.052;2024-02-04T12:03:27;17.30;99.90
11848;DHT22;5983;49.966;8.052;2024-02-04T12:05:56;16.90;99.90
11848;DHT22;5983;49.966;8.052;2024-02-04T12:08:23;16.50;99.90
11848;DHT22;5983;49.966;8.052;2024-02-04T12:10:52;16.10;99.90
11848;DHT22;5983;49.966;8.052;2024-02-04T12:13:19;15.60;99.90
11848;DHT22;5983;49.966;8.052;2024-02-04T12:15:46;15.30;99.90
11848;DHT22;5983;49.966;8.052;2024-02-04T12:18:13;15.00;99.90
11848;DHT22;5983;49.966;8.052;2024-02-04T12:20:47;14.70;99.90
11848;DHT22;5983;49.966;8.052;2024-02-04T12:23:15;14.40;99.90
11848;DHT22;5983;49.966;8.052;2024-02-04T12:25:43;14.20;99.90
11848;DHT22;5983;49.966;8.052;2024-02-04T12:28:09;14.00;99.90
11848;DHT22;5983;49.966;8.052;2024-02-04T12:30:36;13.80;99.90
11848;DHT22;5983;49.966;8.052;2024-02-04T12:33:03;13.70;99.90
11848;DHT22;5983;49.966;8.052;2024-02-04T12:35:32;13.70;99.90
11848;DHT22;5983;49.966;8.052;2024-02-04T12:38:00;13.60;99.90
11848;DHT22;5983;49.966;8.052;2024-02-04T12:40:29;13.50;99.90
11848;DHT22;5983;49.966;8.052;2024-02-04T12:42:56;13.50;99.90
11848;DHT22;5983;49.966;8.052;2024-02-04T12:45:25;13.40;99.90
11848;DHT22;5983;49.966;8.052;2024-02-04T12:47:53;13.30;99.90
11848;DHT22;5983;49.966;8.052;2024-02-04T12:50:21;13.30;99.90
11848;DHT22;5983;49.966;8.052;2024-02-04T12:52:48;13.30;99.90
11848;DHT22;5983;49.966;8.052;2024-02-04T12:55:21;13.60;99.90
11848;DHT22;5983;49.966;8.052;2024-02-04T12:57:49;13.90;99.90
11848;DHT22;5983;49.966;8.052;2024-02-04T13:00:17;14.10;99.90
11848;DHT22;5983;49.966;8.052;2024-02-04T13:02:44;14.10;99.90
11848;DHT22;5983;49.966;8.052;2024-02-04T13:05:21;14.20;99.90
11848;DHT22;5983;49.966;8.052;2024-02-04T13:07:51;14.10;99.90
11848;DHT22;5983;49.966;8.052;2024-02-04T13:10:22;14.00;99.90
11848;DHT22;5983;49.966;8.052;2024-02-04T13:13:02;13.80;99.90
11848;DHT22;5983;49.966;8.052;2024-02-04T13:15:31;13.60;99.90
11848;DHT22;5983;49.966;8.052;2024-02-04T13:17:59;13.40;99.90
11848;DHT22;5983;49.966;8.052;2024-02-04T13:20:26;13.20;99.90
11848;DHT22;5983;49.966;8.052;2024-02-04T13:22:53;13.10;99.90
11848;DHT22;5983;49.966;8.052;2024-02-04T13:25:21;13.00;99.90
11848;DHT22;5983;49.966;8.052;2024-02-04T13:27:48;12.90;99.90
11848;DHT22;5983;49.966;8.052;2024-02-04T13:30:15;12.80;99.90
11848;DHT22;5983;49.966;8.052;2024-02-04T13:32:42;12.70;99.90
11848;DHT22;5983;49.966;8.052;2024-02-04T13:35:09;12.70;99.90
11848;DHT22;5983;49.966;8.052;2024-02-04T13:37:36;12.60;99.90
11848;DHT22;5983;49.966;8.052;2024-02-04T13:40:05;12.60;99.90
11848;DHT22;5983;49.966;8.052;2024-02-04T13:42:35;12.60;99.90
11848;DHT22;5983;49.966;8.052;2024-02-04T13:45:02;12.60;99.90
11848;DHT22;5983;49.966;8.052;2024-02-04T13:47:29;12.60;99.90
11848;DHT22;5983;49.966;8.052;2024-02-04T13:49:56;12.60;99.90
11848;DHT22;5983;49.966;8.052;2024-02-04T13:52:22;12.50;99.90
11848;DHT22;5983;49.966;8.052;2024-02-04T13:54:49;12.60;99.90
11848;DHT22;5983;49.966;8.052;2024-02-04T13:57:16;12.60;99.90
11848;DHT22;5983;49.966;8.052;2024-02-04T13:59:44;12.60;99.90
11848;DHT22;5983;49.966;8.052;2024-02-04T14:02:11;12.60;99.90
11848;DHT22;5983;49.966;8.052;2024-02-04T14:04:38;12.60;99.90
11848;DHT22;5983;49.966;8.052;2024-02-04T14:07:04;12.70;99.90
11848;DHT22;5983;49.966;8.052;2024-02-04T14:09:31;12.70;99.90
11848;DHT22;5983;49.966;8.052;2024-02-04T14:11:58;12.70;99.90
11848;DHT22;5983;49.966;8.052;2024-02-04T14:14:25;12.70;99.90
11848;DHT22;5983;49.966;8.052;2024-02-04T14:16:53;12.80;99.90
11848;DHT22;5983;49.966;8.052;2024-02-04T14:19:20;12.80;99.90
11848;DHT22;5983;49.966;8.052;2024-02-04T14:21:47;12.70;99.90
11848;DHT22;5983;49.966;8.052;2024-02-04T14:24:14;12.80;99.90
11848;DHT22;5983;49.966;8.052;2024-02-04T14:26:40;12.80;99.90
11848;DHT22;5983;49.966;8.052;2024-02-04T14:29:08;12.70;99.90
11848;DHT22;5983;49.966;8.052;2024-02-04T14:31:35;12.70;99.90
11848;DHT22;5983;49.966;8.052;2024-02-04T14:34:03;12.70;99.90
11848;DHT22;5983;49.966;8.052;2024-02-04T14:36:29;12.70;99.90
11848;DHT22;5983;49.966;8.052;2024-02-04T14:38:56;12.60;99.90
11848;DHT22;5983;49.966;8.052;2024-02-04T14:41:23;12.70;99.90
11848;DHT22;5983;49.966;8.052;2024-02-04T14:43:50;12.70;99.90
11848;DHT22;5983;49.966;8.052;2024-02-04T14:46:17;12.70;99.90
11848;DHT22;5983;49.966;8.052;2024-02-04T14:48:43;12.60;99.90
11848;DHT22;5983;49.966;8.052;2024-02-04T14:51:11;12.60;99.90
11848;DHT22;5983;49.966;8.052;2024-02-04T14:53:38;12.60;99.90
11848;DHT22;5983;49.966;8.052;2024-02-04T14:56:05;12.60;99.90
11848;DHT22;5983;49.966;8.052;2024-02-04T14:58:34;12.60;99.90
11848;DHT22;5983;49.966;8.052;2024-02-04T15:01:01;12.60;99.90
11848;DHT22;5983;49.966;8.052;2024-02-04T15:03:29;12.60;99.90
11848;DHT22;5983;49.966;8.052;2024-02-04T15:05:55;12.60;99.90
11848;DHT22;5983;49.966;8.052;2024-02-04T15:08:23;12.60;99.90
11848;DHT22;5983;49.966;8.052;2024-02-04T15:10:50;12.50;99.90
11848;DHT22;5983;49.966;8.052;2024-02-04T15:13:17;12.50;99.90
11848;DHT22;5983;49.966;8.052;2024-02-04T15:15:44;12.50;99.90
11848;DHT22;5983;49.966;8.052;2024-02-04T15:18:12;12.40;99.90
11848;DHT22;5983;49.966;8.052;2024-02-04T15:20:39;12.40;99.90
11848;DHT22;5983;49.966;8.052;2024-02-04T15:23:07;12.40;99.90
11848;DHT22;5983;49.966;8.052;2024-02-04T15:25:36;12.40;99.90
11848;DHT22;5983;49.966;8.052;2024-02-04T15:28:04;12.40;99.90
11848;DHT22;5983;49.966;8.052;2024-02-04T15:30:31;12.30;99.90
11848;DHT22;5983;49.966;8.052;2024-02-04T15:32:59;12.30;99.90
11848;DHT22;5983;49.966;8.052;2024-02-04T15:35:26;12.30;99.90
11848;DHT22;5983;49.966;8.052;2024-02-04T15:37:53;12.30;99.90
11848;DHT22;5983;49.966;8.052;2024-02-04T15:40:23;12.30;99.90
11848;DHT22;5983;49.966;8.052;2024-02-04T15:42:52;12.30;99.90
11848;DHT22;5983;49.966;8.052;2024-02-04T15:45:18;12.30;99.90
11848;DHT22;5983;49.966;8.052;2024-02-04T15:47:48;12.30;99.90
11848;DHT22;5983;49.966;8.052;2024-02-04T15:50:17;12.20;99.90
11848;DHT22;5983;49.966;8.052;2024-02-04T15:52:45;12.20;99.90